| time (UTC) | temp F | wind direction | speed MPH | gust MPH | rain 1hr in | rain 24hr in | rain mn in | humidity % | barometer mb |
| 20260831031005 | 72 | 111 | 1.0 | 3.0 | 0.00 | 0.00 | 0.00 | 47 | 1030.2 |
| 20260831030005 | 32 | 315 | 26.0 | 24.0 | 0.00 | 0.00 | 0.00 | 1 | 1034.5 |
| 20260831025005 | 72 | 123 | 2.0 | 7.0 | 0.00 | 0.00 | 0.00 | 48 | 1030.6 |
| 20260831024005 | 32 | 315 | 26.0 | 24.0 | 0.00 | 0.00 | 0.00 | 1 | 1034.5 |
| 20260831023005 | 32 | 315 | 26.0 | 24.0 | 0.00 | 0.00 | 0.00 | 1 | 1033.5 |
| 20260831022005 | 32 | 315 | 26.0 | 24.0 | 0.00 | 0.00 | 0.00 | 1 | 1033.5 |
| 20260831021005 | 32 | 315 | 26.0 | 24.0 | 0.00 | 0.00 | 0.00 | 1 | 1034.5 |
| 20260831020026 | 72 | 147 | 3.0 | 8.0 | 0.00 | 0.00 | 0.00 | 53 | 1031.3 |
| 20260831015005 | 71 | 124 | 3.0 | 7.0 | 0.00 | 0.00 | 0.00 | 54 | 1031.7 |
| 20260831014005 | 32 | 315 | 26.0 | 24.0 | 0.00 | 0.00 | 0.00 | 1 | 1034.5 |
| 20260831013005 | 70 | 144 | 2.0 | 5.0 | 0.00 | 0.00 | 0.00 | 58 | 1031.9 |
| 20260831012005 | 69 | 8 | 1.0 | 4.0 | 0.00 | 0.00 | 0.00 | 57 | 1031.9 |
| 20260831011005 | 32 | 315 | 26.0 | 24.0 | 0.00 | 0.00 | 0.00 | 1 | 1035.5 |
| 20260831010004 | 68 | 60 | 2.0 | 4.0 | 0.00 | 0.00 | 0.00 | 64 | 1032.2 |
| 20260831005004 | 32 | 315 | 26.0 | 24.0 | 0.00 | 0.00 | 0.00 | 1 | 1035.5 |
| 20260831004005 | 66 | 53 | 2.0 | 4.0 | 0.00 | 0.00 | 0.00 | 66 | 1032.3 |
| 20260831003005 | 32 | 315 | 26.0 | 24.0 | 0.00 | 0.00 | 0.00 | 1 | 1035.5 |
| 20260831002004 | 32 | 315 | 26.0 | 24.0 | 0.00 | 0.00 | 0.00 | 1 | 1035.5 |
| 20260831001005 | 32 | 315 | 26.0 | 24.0 | 0.00 | 0.00 | 0.00 | 1 | 1036.5 |
| 20260831000005 | 62 | 351 | 1.0 | 5.0 | 0.00 | 0.00 | 0.00 | 72 | 1032.6 |
| 20260830235004 | 62 | 360 | 2.0 | 4.0 | 0.00 | 0.00 | 0.00 | 74 | 1032.5 |
| 20260830234005 | 32 | 315 | 26.0 | 24.0 | 0.00 | 0.00 | 0.00 | 1 | 1035.5 |
| 20260830233004 | 32 | 315 | 26.0 | 24.0 | 0.00 | 0.00 | 0.00 | 1 | 1035.5 |
| 20260830232004 | 59 | 132 | 0.0 | 2.0 | 0.00 | 0.00 | 0.00 | 78 | 1032.8 |
| 20260830231005 | 32 | 315 | 26.0 | 24.0 | 0.00 | 0.00 | 0.00 | 1 | 1035.5 |
| 20260830230004 | 58 | 144 | 1.0 | 4.0 | 0.00 | 0.00 | 0.00 | 80 | 1032.8 |
| 20260830225004 | 32 | 315 | 26.0 | 24.0 | 0.00 | 0.00 | 0.00 | 1 | 1035.5 |
| 20260830224005 | 56 | 140 | 1.0 | 3.0 | 0.00 | 0.00 | 0.00 | 85 | 1032.6 |
| 20260830223004 | 54 | 152 | 0.0 | 2.0 | 0.00 | 0.00 | 0.00 | 85 | 1032.7 |
| 20260830222004 | 52 | 151 | 1.0 | 2.0 | 0.00 | 0.00 | 0.00 | 88 | 1032.6 |
| 20260830221004 | 52 | 148 | 0.0 | 2.0 | 0.00 | 0.00 | 0.00 | 88 | 1032.6 |
| 20260830220004 | 32 | 315 | 26.0 | 24.0 | 0.00 | 0.00 | 0.00 | 1 | 1034.5 |
| 20260830215004 | 49 | 0 | 0.0 | 0.0 | 0.00 | 0.00 | 0.00 | 90 | 1032.3 |
| 20260830214005 | 32 | 315 | 26.0 | 24.0 | 0.00 | 0.00 | 0.00 | 1 | 1034.5 |
| 20260830213004 | 46 | 0 | 0.0 | 0.0 | 0.00 | 0.00 | 0.00 | 92 | 1032.2 |
| 20260830212025 | 32 | 315 | 26.0 | 24.0 | 0.00 | 0.00 | 0.00 | 1 | 1034.5 |
| 20260830211025 | 32 | 315 | 26.0 | 24.0 | 0.00 | 0.00 | 0.00 | 1 | 1034.5 |
| 20260830210004 | 32 | 315 | 26.0 | 24.0 | 0.00 | 0.00 | 0.00 | 1 | 1034.5 |
| 20260830205004 | 43 | 0 | 0.0 | 0.0 | 0.00 | 0.00 | 0.00 | 93 | 1031.9 |
| 20260830204004 | 32 | 315 | 26.0 | 24.0 | 0.00 | 0.00 | 0.00 | 1 | 1033.5 |
| 20260830203004 | 32 | 315 | 26.0 | 24.0 | 0.00 | 0.00 | 0.00 | 1 | 1034.5 |
| 20260830202004 | 32 | 315 | 26.0 | 24.0 | 0.00 | 0.00 | 0.00 | 1 | 1034.5 |
| 20260830201004 | 43 | 0 | 0.0 | 0.0 | 0.00 | 0.00 | 0.00 | 93 | 1031.6 |
| 20260830200004 | 32 | 315 | 26.0 | 24.0 | 0.00 | 0.00 | 0.00 | 1 | 1033.5 |
| 20260830195004 | 44 | 360 | 0.0 | 0.0 | 0.00 | 0.00 | 0.00 | 93 | 1031.6 |
| 20260830194004 | 44 | 257 | 0.0 | 1.0 | 0.00 | 0.00 | 0.00 | 93 | 1031.5 |
| 20260830193004 | 44 | 0 | 0.0 | 0.0 | 0.00 | 0.00 | 0.00 | 93 | 1031.4 |
| 20260830192004 | 44 | 0 | 0.0 | 0.0 | 0.00 | 0.00 | 0.00 | 92 | 1031.3 |
| 20260830191004 | 44 | 0 | 0.0 | 0.0 | 0.00 | 0.00 | 0.00 | 93 | 1031.2 |
| 20260830190004 | 44 | 0 | 0.0 | 0.0 | 0.00 | 0.00 | 0.00 | 93 | 1031.3 |
| 20260830185004 | 32 | 315 | 26.0 | 24.0 | 0.00 | 0.00 | 0.00 | 1 | 1033.5 |
| 20260830184004 | 44 | 0 | 0.0 | 0.0 | 0.00 | 0.00 | 0.00 | 93 | 1031.1 |
| 20260830183004 | 44 | 0 | 0.0 | 0.0 | 0.00 | 0.00 | 0.00 | 93 | 1031.1 |
| 20260830182004 | 45 | 0 | 0.0 | 0.0 | 0.00 | 0.00 | 0.00 | 93 | 1031.0 |
| 20260830181025 | 32 | 315 | 26.0 | 24.0 | 0.00 | 0.00 | 0.00 | 1 | 1033.5 |
| 20260830180004 | 32 | 315 | 26.0 | 24.0 | 0.00 | 0.00 | 0.00 | 1 | 1032.5 |
| 20260830175004 | 45 | 0 | 0.0 | 0.0 | 0.00 | 0.00 | 0.00 | 92 | 1030.9 |
| 20260830174004 | 32 | 315 | 26.0 | 24.0 | 0.00 | 0.00 | 0.00 | 1 | 1033.5 |
| 20260830173004 | 45 | 0 | 0.0 | 0.0 | 0.00 | 0.00 | 0.00 | 92 | 1031.0 |
| 20260830172004 | 32 | 315 | 26.0 | 24.0 | 0.00 | 0.00 | 0.00 | 1 | 1033.5 |
| 20260830171025 | 32 | 315 | 26.0 | 24.0 | 0.00 | 0.00 | 0.00 | 1 | 1032.5 |
| 20260830170004 | 47 | 0 | 0.0 | 0.0 | 0.00 | 0.00 | 0.00 | 91 | 1030.8 |
| 20260830165004 | 47 | 0 | 0.0 | 0.0 | 0.00 | 0.00 | 0.00 | 91 | 1030.8 |
| 20260830164005 | 47 | 0 | 0.0 | 0.0 | 0.00 | 0.00 | 0.00 | 90 | 1031.0 |
| 20260830163004 | 32 | 315 | 26.0 | 24.0 | 0.00 | 0.00 | 0.00 | 1 | 1033.5 |
| 20260830162004 | 48 | 0 | 0.0 | 0.0 | 0.00 | 0.00 | 0.00 | 91 | 1030.9 |
| 20260830161004 | 32 | 315 | 26.0 | 24.0 | 0.00 | 0.00 | 0.00 | 1 | 1033.5 |
| 20260830160004 | 48 | 0 | 0.0 | 0.0 | 0.00 | 0.00 | 0.00 | 90 | 1031.1 |
| 20260830155003 | 48 | 0 | 0.0 | 0.0 | 0.00 | 0.00 | 0.00 | 90 | 1031.3 |
| 20260830154004 | 32 | 315 | 26.0 | 24.0 | 0.00 | 0.00 | 0.00 | 1 | 1033.5 |
| 20260830153004 | 49 | 0 | 0.0 | 0.0 | 0.00 | 0.00 | 0.00 | 90 | 1031.3 |
| 20260830152004 | 32 | 315 | 26.0 | 24.0 | 0.00 | 0.00 | 0.00 | 1 | 1033.5 |
| 20260830151003 | 32 | 315 | 26.0 | 24.0 | 0.00 | 0.00 | 0.00 | 1 | 1033.5 |
| 20260830150004 | 32 | 315 | 26.0 | 24.0 | 0.00 | 0.00 | 0.00 | 1 | 1033.5 |
| 20260830145004 | 32 | 315 | 26.0 | 24.0 | 0.00 | 0.00 | 0.00 | 1 | 1033.5 |
| 20260830144004 | 32 | 315 | 26.0 | 24.0 | 0.00 | 0.00 | 0.00 | 1 | 1033.5 |
| 20260830143004 | 51 | 0 | 0.0 | 0.0 | 0.00 | 0.00 | 0.00 | 90 | 1031.7 |
| 20260830142003 | 32 | 315 | 26.0 | 24.0 | 0.00 | 0.00 | 0.00 | 1 | 1033.5 |
| 20260830141003 | 32 | 315 | 26.0 | 24.0 | 0.00 | 0.00 | 0.00 | 1 | 1033.5 |
| 20260830140026 | 32 | 315 | 26.0 | 24.0 | 0.00 | 0.00 | 0.00 | 1 | 1033.5 |
| 20260830135003 | 32 | 315 | 26.0 | 24.0 | 0.00 | 0.00 | 0.00 | 1 | 1033.5 |
| 20260830134004 | 51 | 0 | 0.0 | 0.0 | 0.00 | 0.00 | 0.00 | 89 | 1031.4 |
| 20260830133003 | 32 | 315 | 26.0 | 24.0 | 0.00 | 0.00 | 0.00 | 1 | 1033.5 |
| 20260830132003 | 52 | 0 | 0.0 | 0.0 | 0.00 | 0.00 | 0.00 | 89 | 1031.2 |
| 20260830131003 | 52 | 302 | 0.0 | 0.0 | 0.00 | 0.00 | 0.00 | 88 | 1031.1 |
| 20260830130003 | 52 | 302 | 1.0 | 2.0 | 0.00 | 0.00 | 0.00 | 88 | 1031.1 |
| 20260830125003 | 52 | 302 | 0.0 | 2.0 | 0.00 | 0.00 | 0.00 | 88 | 1031.2 |
| 20260830124003 | 32 | 315 | 26.0 | 24.0 | 0.00 | 0.00 | 0.00 | 1 | 1033.5 |
| 20260830123024 | 32 | 315 | 26.0 | 24.0 | 0.00 | 0.00 | 0.00 | 1 | 1033.5 |
| 20260830122003 | 54 | 0 | 0.0 | 0.0 | 0.00 | 0.00 | 0.00 | 85 | 1031.1 |
| 20260830121003 | 55 | 0 | 0.0 | 0.0 | 0.00 | 0.00 | 0.00 | 85 | 1031.1 |
| 20260830120003 | 56 | 0 | 0.0 | 0.0 | 0.00 | 0.00 | 0.00 | 85 | 1031.1 |
| 20260830115006 | 32 | 315 | 26.0 | 24.0 | 0.00 | 0.00 | 0.00 | 1 | 1033.5 |
| 20260830114027 | 56 | 0 | 0.0 | 0.0 | 0.00 | 0.00 | 0.00 | 83 | 1031.2 |
| 20260830113006 | 32 | 315 | 26.0 | 24.0 | 0.00 | 0.00 | 0.00 | 1 | 1034.5 |
| 20260830112006 | 58 | 0 | 0.0 | 0.0 | 0.00 | 0.00 | 0.00 | 83 | 1031.1 |
| 20260830111006 | 32 | 315 | 26.0 | 24.0 | 0.00 | 0.00 | 0.00 | 1 | 1033.5 |
| 20260830110006 | 32 | 315 | 26.0 | 24.0 | 0.00 | 0.00 | 0.00 | 1 | 1033.5 |
| 20260830105006 | 58 | 0 | 0.0 | 0.0 | 0.00 | 0.00 | 0.00 | 81 | 1031.1 |
| 20260830104006 | 59 | 0 | 0.0 | 0.0 | 0.00 | 0.00 | 0.00 | 80 | 1031.2 |
| 20260830103006 | 32 | 315 | 26.0 | 24.0 | 0.00 | 0.00 | 0.00 | 1 | 1033.5 |
| 20260830102006 | 59 | 0 | 0.0 | 0.0 | 0.00 | 0.00 | 0.00 | 79 | 1031.1 |
| 20260830101027 | 32 | 315 | 26.0 | 24.0 | 0.00 | 0.00 | 0.00 | 1 | 1033.5 |
| 20260830100006 | 32 | 315 | 26.0 | 24.0 | 0.00 | 0.00 | 0.00 | 1 | 1033.5 |
| 20260830095006 | 60 | 137 | 0.0 | 2.0 | 0.00 | 0.00 | 0.00 | 74 | 1030.7 |
| 20260830094006 | 60 | 139 | 1.0 | 4.0 | 0.00 | 0.00 | 0.00 | 72 | 1030.6 |
| 20260830093006 | 32 | 315 | 26.0 | 24.0 | 0.00 | 0.00 | 0.00 | 1 | 1032.5 |
| 20260830092005 | 60 | 204 | 1.0 | 4.0 | 0.00 | 0.00 | 0.00 | 71 | 1030.4 |
| 20260830091006 | 32 | 315 | 26.0 | 24.0 | 0.00 | 0.00 | 0.00 | 1 | 1032.5 |
| 20260830090006 | 32 | 315 | 26.0 | 24.0 | 0.00 | 0.00 | 0.00 | 1 | 1032.5 |
| 20260830085006 | 32 | 315 | 26.0 | 24.0 | 0.00 | 0.00 | 0.00 | 1 | 1032.5 |
| 20260830084017 | 32 | 315 | 26.0 | 24.0 | 0.00 | 0.00 | 0.00 | 1 | 1031.5 |
| 20260830084015 | 64 | 0 | 0.0 | 0.0 | 0.00 | 0.00 | 0.00 | 66 | 1029.8 |
| 20260830083006 | 64 | 0 | 0.0 | 0.0 | 0.00 | 0.00 | 0.00 | 64 | 1029.6 |
| 20260830082005 | 32 | 315 | 26.0 | 24.0 | 0.00 | 0.00 | 0.00 | 1 | 1032.5 |
| 20260830081005 | 66 | 114 | 0.0 | 2.0 | 0.00 | 0.00 | 0.00 | 60 | 1029.5 |
| 20260830080027 | 66 | 109 | 1.0 | 3.0 | 0.00 | 0.00 | 0.00 | 59 | 1029.4 |
| 20260830075006 | 67 | 104 | 0.0 | 0.0 | 0.00 | 0.00 | 0.00 | 58 | 1029.4 |
| 20260830074005 | 67 | 108 | 1.0 | 3.0 | 0.00 | 0.00 | 0.00 | 58 | 1029.4 |
| 20260830073006 | 32 | 315 | 26.0 | 24.0 | 0.00 | 0.00 | 0.00 | 1 | 1032.5 |
| 20260830072027 | 69 | 116 | 2.0 | 4.0 | 0.00 | 0.00 | 0.00 | 54 | 1029.2 |
| 20260830071005 | 32 | 315 | 26.0 | 24.0 | 0.00 | 0.00 | 0.00 | 1 | 1032.5 |
| 20260830070006 | 71 | 111 | 2.0 | 5.0 | 0.00 | 0.00 | 0.00 | 52 | 1029.1 |
| 20260830065006 | 72 | 111 | 3.0 | 8.0 | 0.00 | 0.00 | 0.00 | 51 | 1029.1 |
| 20260830064005 | 32 | 315 | 26.0 | 24.0 | 0.00 | 0.00 | 0.00 | 1 | 1032.5 |
| 20260830063005 | 32 | 315 | 26.0 | 24.0 | 0.00 | 0.00 | 0.00 | 1 | 1032.5 |
| 20260830062005 | 73 | 140 | 1.0 | 3.0 | 0.00 | 0.00 | 0.00 | 46 | 1029.0 |
| 20260830061027 | 32 | 315 | 26.0 | 24.0 | 0.00 | 0.00 | 0.00 | 1 | 1032.5 |
| 20260830060005 | 73 | 140 | 2.0 | 4.0 | 0.00 | 0.00 | 0.00 | 49 | 1029.2 |
| 20260830055005 | 73 | 125 | 2.0 | 5.0 | 0.00 | 0.00 | 0.00 | 49 | 1029.1 |
| 20260830054005 | 74 | 154 | 2.0 | 5.0 | 0.00 | 0.00 | 0.00 | 47 | 1029.2 |
| 20260830053006 | 74 | 157 | 3.0 | 7.0 | 0.00 | 0.00 | 0.00 | 47 | 1029.2 |
| 20260830052026 | 74 | 178 | 2.0 | 4.0 | 0.00 | 0.00 | 0.00 | 48 | 1029.3 |
| 20260830051005 | 32 | 315 | 26.0 | 24.0 | 0.00 | 0.00 | 0.00 | 1 | 1032.5 |
| 20260830050005 | 74 | 123 | 3.0 | 5.0 | 0.00 | 0.00 | 0.00 | 47 | 1029.3 |
| 20260830045026 | 74 | 145 | 3.0 | 6.0 | 0.00 | 0.00 | 0.00 | 48 | 1029.3 |
| 20260830044005 | 74 | 168 | 2.0 | 5.0 | 0.00 | 0.00 | 0.00 | 47 | 1029.3 |
| 20260830043026 | 32 | 315 | 26.0 | 24.0 | 0.00 | 0.00 | 0.00 | 1 | 1032.5 |
| 20260830042005 | 32 | 315 | 26.0 | 24.0 | 0.00 | 0.00 | 0.00 | 1 | 1032.5 |
| 20260830041005 | 32 | 315 | 26.0 | 24.0 | 0.00 | 0.00 | 0.00 | 1 | 1032.5 |
| 20260830040005 | 70 | 37 | 2.0 | 6.0 | 0.00 | 0.00 | 0.00 | 52 | 1029.6 |
| 20260830035005 | 71 | 65 | 2.0 | 7.0 | 0.00 | 0.00 | 0.00 | 53 | 1029.6 |
| 20260830034005 | 32 | 315 | 26.0 | 24.0 | 0.00 | 0.00 | 0.00 | 1 | 1032.5 |
| 20260830033005 | 71 | 78 | 2.0 | 4.0 | 0.00 | 0.00 | 0.00 | 55 | 1029.9 |
| 20260830032006 | 71 | 9 | 2.0 | 4.0 | 0.00 | 0.00 | 0.00 | 56 | 1030.0 |